createdAt,value
2018-04-25T00:00:04.230Z,61.57
2018-04-25T00:01:03.830Z,61.85
2018-04-25T00:02:03.961Z,62.62
2018-04-25T00:03:04.109Z,62.04
2018-04-25T00:04:04.244Z,61.94
2018-04-25T00:05:04.409Z,61.85
2018-04-25T00:06:04.542Z,61.76
2018-04-25T00:07:04.682Z,62.04
2018-04-25T00:08:04.847Z,62.04
2018-04-25T00:09:04.981Z,61.85
2018-04-25T00:10:05.125Z,61.76
2018-04-25T00:11:05.261Z,61.66
2018-04-25T00:12:05.405Z,61.08
2018-04-25T00:13:05.540Z,61.37
2018-04-25T00:14:05.680Z,61.18
2018-04-25T00:15:05.818Z,61.18
2018-04-25T00:16:06.002Z,60.70
2018-04-25T00:17:06.129Z,60.70
2018-04-25T00:18:06.288Z,60.22
2018-04-25T00:19:06.424Z,60.41
2018-04-25T00:20:06.554Z,60.51
2018-04-25T00:21:06.692Z,61.47
2018-04-25T00:22:06.837Z,61.08
2018-04-25T00:23:06.977Z,61.28
2018-04-25T00:24:07.109Z,61.08
2018-04-25T00:25:07.247Z,60.99
2018-04-25T00:26:07.386Z,61.37
2018-04-25T00:27:07.527Z,61.57
2018-04-25T00:28:07.663Z,61.94
2018-04-25T00:29:07.800Z,62.14
2018-04-25T00:30:07.943Z,62.01
2018-04-25T00:31:08.080Z,62.01
2018-04-25T00:32:08.221Z,62.01
2018-04-25T00:33:08.354Z,62.87
2018-04-25T00:34:08.505Z,62.01
2018-04-25T00:35:08.634Z,62.40
2018-04-25T00:36:08.795Z,62.59
2018-04-25T00:37:08.933Z,62.68
2018-04-25T00:38:09.090Z,63.54
2018-04-25T00:39:09.267Z,62.65
2018-04-25T00:40:09.397Z,62.65
2018-04-25T00:41:09.536Z,62.94
2018-04-25T00:42:09.686Z,62.74
2018-04-25T00:43:09.838Z,62.27
2018-04-25T00:44:09.968Z,62.74
2018-04-25T00:45:10.112Z,62.68
2018-04-25T00:46:10.275Z,62.40
2018-04-25T00:47:10.411Z,62.87
2018-04-25T00:48:10.549Z,62.49
2018-04-25T00:49:10.715Z,62.30
2018-04-25T00:50:10.847Z,61.91
2018-04-25T00:51:10.989Z,62.01
2018-04-25T00:52:11.146Z,62.20
2018-04-25T00:53:11.278Z,62.40
2018-04-25T00:54:11.419Z,61.82
2018-04-25T00:55:11.554Z,61.76
2018-04-25T00:56:11.700Z,61.66
2018-04-25T00:57:11.827Z,61.72
2018-04-25T00:58:11.963Z,62.40
2018-04-25T00:59:12.160Z,62.01
2018-04-25T01:00:12.292Z,62.30
2018-04-25T01:01:12.437Z,62.11
2018-04-25T01:02:12.580Z,62.20
2018-04-25T01:03:12.716Z,62.68
2018-04-25T01:04:12.850Z,63.06
2018-04-25T01:05:12.995Z,62.77
2018-04-25T01:06:13.137Z,62.20
2018-04-25T01:07:13.278Z,62.20
2018-04-25T01:08:13.416Z,62.77
2018-04-25T01:09:13.553Z,63.42
2018-04-25T01:10:13.727Z,63.99
2018-04-25T01:11:13.879Z,65.04
2018-04-25T01:12:14.021Z,65.52
2018-04-25T01:13:14.157Z,65.61
2018-04-25T01:14:14.316Z,65.90
2018-04-25T01:15:14.452Z,66.00
2018-04-25T01:16:14.584Z,65.87
2018-04-25T01:17:14.721Z,65.52
2018-04-25T01:18:14.882Z,66.06
2018-04-25T01:19:15.022Z,66.76
2018-04-25T01:20:15.156Z,66.54
2018-04-25T01:21:15.293Z,66.16
2018-04-25T01:22:15.532Z,66.35
2018-04-25T01:23:15.651Z,66.73
2018-04-25T01:24:15.667Z,67.40
2018-04-25T01:25:15.799Z,67.30
2018-04-25T01:26:16.000Z,67.11
2018-04-25T01:27:16.093Z,67.02
2018-04-25T01:28:16.228Z,67.30
2018-04-25T01:29:16.363Z,67.02
2018-04-25T01:30:16.507Z,67.49
2018-04-25T01:31:16.643Z,67.30
2018-04-25T01:32:16.775Z,67.02
2018-04-25T01:33:16.935Z,67.49
2018-04-25T01:34:17.067Z,67.30
2018-04-25T01:35:17.203Z,66.63
2018-04-25T01:36:17.344Z,66.73
2018-04-25T01:37:17.488Z,67.30
2018-04-25T01:38:17.629Z,67.40
2018-04-25T01:39:17.766Z,66.73
2018-04-25T01:40:17.906Z,66.83
2018-04-25T01:41:18.043Z,66.63
2018-04-25T01:42:18.178Z,66.35
2018-04-25T01:43:18.320Z,66.16
2018-04-25T01:44:18.458Z,65.87
2018-04-25T01:45:18.587Z,66.28
2018-04-25T01:46:18.739Z,66.00
2018-04-25T01:47:18.873Z,66.09
2018-04-25T01:48:19.016Z,65.52
2018-04-25T01:49:19.145Z,65.61
2018-04-25T01:50:19.287Z,65.61
2018-04-25T01:51:19.419Z,65.90
2018-04-25T01:52:19.553Z,66.00
2018-04-25T01:53:19.691Z,65.61
2018-04-25T01:54:19.831Z,65.81
2018-04-25T01:55:19.984Z,65.52
2018-04-25T01:56:20.122Z,65.33
2018-04-25T01:57:20.256Z,65.52
2018-04-25T01:58:20.414Z,65.52
2018-04-25T01:59:20.593Z,65.33
2018-04-25T02:00:20.706Z,65.33
2018-04-25T02:01:20.845Z,65.90
2018-04-25T02:02:20.985Z,65.71
2018-04-25T02:03:21.120Z,65.52
2018-04-25T02:04:21.273Z,66.00
2018-04-25T02:05:21.407Z,66.09
2018-04-25T02:06:21.553Z,65.90
2018-04-25T02:07:21.685Z,66.00
2018-04-25T02:08:21.850Z,66.92
2018-04-25T02:09:21.982Z,67.49
2018-04-25T02:10:22.121Z,67.11
2018-04-25T02:11:22.255Z,67.21
2018-04-25T02:12:22.416Z,66.73
2018-04-25T02:13:22.555Z,66.63
2018-04-25T02:14:22.683Z,67.02
2018-04-25T02:15:22.823Z,66.63
2018-04-25T02:16:22.974Z,67.30
2018-04-25T02:17:23.114Z,67.21
2018-04-25T02:18:23.247Z,67.11
2018-04-25T02:19:23.417Z,66.83
2018-04-25T02:20:23.544Z,66.35
2018-04-25T02:21:23.683Z,66.35
2018-04-25T02:22:23.840Z,66.16
2018-04-25T02:23:23.980Z,67.11
2018-04-25T02:24:24.125Z,66.54
2018-04-25T02:25:24.265Z,66.35
2018-04-25T02:26:24.411Z,66.35
2018-04-25T02:27:24.545Z,66.06
2018-04-25T02:28:24.683Z,66.28
2018-04-25T02:29:24.834Z,66.16
2018-04-25T02:30:24.987Z,66.00
2018-04-25T02:31:25.125Z,66.19
2018-04-25T02:32:25.262Z,66.09
2018-04-25T02:33:25.400Z,65.81
2018-04-25T02:34:25.555Z,66.09
2018-04-25T02:35:25.690Z,65.90
2018-04-25T02:36:25.820Z,65.90
2018-04-25T02:37:25.959Z,66.35
2018-04-25T02:38:26.122Z,66.35
2018-04-25T02:39:26.260Z,66.44
2018-04-25T02:40:26.402Z,66.35
2018-04-25T02:41:26.528Z,66.83
2018-04-25T02:42:26.690Z,66.92
2018-04-25T02:43:26.820Z,66.92
2018-04-25T02:44:26.959Z,67.11
2018-04-25T02:45:27.097Z,66.25
2018-04-25T02:46:27.230Z,66.25
2018-04-25T02:47:27.375Z,66.63
2018-04-25T02:48:27.509Z,66.06
2018-04-25T02:49:27.645Z,66.00
2018-04-25T02:50:27.795Z,65.90
2018-04-25T02:51:27.967Z,66.19
2018-04-25T02:52:28.102Z,66.09
2018-04-25T02:53:28.239Z,66.00
2018-04-25T02:54:28.394Z,66.00
2018-04-25T02:55:28.529Z,65.61
2018-04-25T02:56:28.670Z,65.71
2018-04-25T02:57:28.804Z,65.61
2018-04-25T02:58:28.938Z,65.42
2018-04-25T02:59:29.078Z,66.00
2018-04-25T03:00:29.212Z,66.00
2018-04-25T03:01:29.344Z,65.81
2018-04-25T03:02:29.484Z,65.14
2018-04-25T03:03:29.625Z,65.33
2018-04-25T03:04:29.768Z,65.04
2018-04-25T03:05:29.904Z,65.42
2018-04-25T03:06:30.043Z,65.11
2018-04-25T03:07:30.182Z,65.14
2018-04-25T03:08:30.320Z,65.33
2018-04-25T03:09:30.465Z,65.33
2018-04-25T03:10:30.600Z,65.30
2018-04-25T03:11:30.734Z,65.14
2018-04-25T03:12:30.874Z,65.14
2018-04-25T03:13:31.099Z,65.14
2018-04-25T03:14:31.147Z,65.42
2018-04-25T03:15:31.311Z,65.61
2018-04-25T03:16:31.440Z,65.42
2018-04-25T03:17:31.580Z,65.97
2018-04-25T03:18:31.714Z,65.87
2018-04-25T03:19:31.873Z,66.16
2018-04-25T03:20:32.006Z,66.35
2018-04-25T03:21:32.142Z,66.25
2018-04-25T03:22:32.370Z,66.19
2018-04-25T03:23:32.441Z,66.16
2018-04-25T03:24:32.620Z,66.06
2018-04-25T03:25:32.754Z,66.63
2018-04-25T03:26:32.891Z,66.28
2018-04-25T03:27:33.062Z,66.35
2018-04-25T03:28:33.193Z,67.02
2018-04-25T03:29:33.339Z,66.83
2018-04-25T03:30:33.478Z,66.73
2018-04-25T03:31:33.620Z,67.11
2018-04-25T03:32:33.740Z,66.92
2018-04-25T03:33:33.878Z,66.73
2018-04-25T03:34:34.009Z,66.83
2018-04-25T03:35:34.160Z,66.44
2018-04-25T03:36:34.293Z,66.96
2018-04-25T03:37:34.436Z,67.05
2018-04-25T03:38:34.567Z,66.73
2018-04-25T03:39:34.725Z,66.54
2018-04-25T03:40:34.867Z,66.47
2018-04-25T03:41:34.993Z,66.38
2018-04-25T03:42:35.131Z,66.92
2018-04-25T03:43:35.285Z,66.83
2018-04-25T03:44:35.408Z,67.40
2018-04-25T03:45:35.543Z,67.02
2018-04-25T03:46:35.706Z,67.11
2018-04-25T03:47:35.895Z,67.21
2018-04-25T03:48:36.036Z,67.02
2018-04-25T03:49:36.175Z,66.83
2018-04-25T03:50:36.343Z,66.92
2018-04-25T03:51:36.480Z,66.86
2018-04-25T03:52:36.624Z,67.14
2018-04-25T03:53:36.766Z,66.35
2018-04-25T03:54:36.904Z,66.86
2018-04-25T03:55:37.040Z,66.28
2018-04-25T03:56:37.177Z,66.44
2018-04-25T03:57:37.319Z,66.38
2018-04-25T03:58:37.460Z,66.28
2018-04-25T03:59:37.607Z,66.57
2018-04-25T04:00:37.747Z,66.19
2018-04-25T04:01:37.876Z,66.96
2018-04-25T04:02:38.051Z,67.05
2018-04-25T04:03:38.195Z,67.43
2018-04-25T04:04:38.331Z,67.40
2018-04-25T04:05:38.482Z,67.24
2018-04-25T04:06:38.606Z,67.24
2018-04-25T04:07:38.748Z,67.49
2018-04-25T04:08:38.883Z,67.02
2018-04-25T04:09:39.023Z,67.30
2018-04-25T04:10:39.158Z,67.97
2018-04-25T04:11:39.294Z,67.49
2018-04-25T04:12:39.420Z,67.30
2018-04-25T04:13:39.568Z,67.40
2018-04-25T04:14:39.701Z,67.97
2018-04-25T04:15:39.839Z,67.49
2018-04-25T04:16:39.977Z,68.07
2018-04-25T04:17:40.118Z,67.78
2018-04-25T04:18:40.258Z,67.69
2018-04-25T04:19:40.395Z,68.07
2018-04-25T04:20:40.534Z,67.72
2018-04-25T04:21:40.672Z,67.69
2018-04-25T04:22:40.828Z,67.97
2018-04-25T04:23:40.961Z,67.88
2018-04-25T04:24:41.097Z,68.35
2018-04-25T04:25:41.241Z,68.84
2018-04-25T04:26:41.403Z,68.64
2018-04-25T04:27:41.538Z,68.64
2018-04-25T04:28:41.678Z,68.45
2018-04-25T04:29:41.846Z,69.50
2018-04-25T04:30:41.974Z,69.85
2018-04-25T04:31:42.109Z,69.56
2018-04-25T04:32:42.264Z,69.89
2018-04-25T04:33:42.401Z,69.70
2018-04-25T04:34:42.547Z,69.70
2018-04-25T04:35:42.705Z,69.70
2018-04-25T04:36:42.832Z,69.50
2018-04-25T04:37:42.965Z,69.41
2018-04-25T04:38:43.122Z,69.02
2018-04-25T04:39:43.254Z,69.41
2018-04-25T04:40:43.387Z,69.31
2018-04-25T04:41:43.542Z,69.12
2018-04-25T04:42:43.683Z,68.93
2018-04-25T04:43:43.822Z,69.21
2018-04-25T04:44:43.982Z,69.41
2018-04-25T04:45:44.208Z,69.21
2018-04-25T04:46:44.235Z,69.06
2018-04-25T04:47:44.372Z,69.31
2018-04-25T04:48:44.520Z,69.25
2018-04-25T04:49:44.653Z,69.35
2018-04-25T04:50:44.795Z,69.15
2018-04-25T04:51:44.948Z,69.12
2018-04-25T04:52:45.094Z,69.70
2018-04-25T04:53:45.244Z,69.89
2018-04-25T04:54:45.372Z,69.79
2018-04-25T04:55:45.536Z,70.17
2018-04-25T04:56:45.675Z,70.75
2018-04-25T04:57:45.813Z,71.42
2018-04-25T04:58:46.025Z,71.13
2018-04-25T04:59:46.130Z,71.32
2018-04-25T05:00:46.207Z,71.51
2018-04-25T05:01:46.402Z,71.32
2018-04-25T05:02:46.558Z,71.61
2018-04-25T05:03:46.698Z,72.08
2018-04-25T05:04:46.832Z,72.28
2018-04-25T05:05:46.975Z,71.99
2018-04-25T05:06:47.113Z,71.70
2018-04-25T05:07:47.243Z,72.18
2018-04-25T05:08:47.506Z,71.61
2018-04-25T05:09:47.518Z,71.70
2018-04-25T05:10:47.666Z,72.18
2018-04-25T05:11:47.804Z,71.89
2018-04-25T05:12:47.950Z,71.89
2018-04-25T05:13:48.081Z,71.22
2018-04-25T05:14:48.222Z,71.55
2018-04-25T05:15:48.369Z,71.26
2018-04-25T05:16:48.512Z,72.31
2018-04-25T05:17:48.640Z,71.45
2018-04-25T05:18:48.787Z,71.83
2018-04-25T05:19:48.921Z,71.55
2018-04-25T05:20:49.059Z,71.73
2018-04-25T05:21:49.197Z,71.07
2018-04-25T05:22:49.336Z,71.45
2018-04-25T05:23:49.475Z,71.36
2018-04-25T05:24:49.616Z,71.93
2018-04-25T05:25:49.753Z,71.36
2018-04-25T05:26:49.916Z,71.16
2018-04-25T05:27:50.045Z,71.64
2018-04-25T05:28:50.190Z,71.64
2018-04-25T05:29:50.355Z,71.45
2018-04-25T05:30:50.485Z,71.36
2018-04-25T05:31:50.639Z,71.26
2018-04-25T05:32:50.781Z,71.16
2018-04-25T05:33:50.916Z,71.45
2018-04-25T05:34:51.047Z,71.83
2018-04-25T05:35:51.192Z,71.36
2018-04-25T05:36:51.329Z,71.26
2018-04-25T05:37:51.469Z,71.36
2018-04-25T05:38:51.608Z,71.45
2018-04-25T05:39:51.762Z,71.36
2018-04-25T05:40:51.901Z,71.26
2018-04-25T05:41:52.035Z,70.87
2018-04-25T05:42:52.183Z,71.11
2018-04-25T05:43:52.319Z,70.62
2018-04-25T05:44:52.461Z,70.91
2018-04-25T05:45:52.615Z,70.72
2018-04-25T05:46:52.740Z,71.48
2018-04-25T05:47:52.871Z,70.81
2018-04-25T05:48:53.050Z,71.30
2018-04-25T05:49:53.157Z,71.39
2018-04-25T05:50:53.294Z,70.53
2018-04-25T05:51:53.436Z,71.01
2018-04-25T05:52:53.580Z,71.30
2018-04-25T05:53:53.699Z,70.72
2018-04-25T05:54:53.843Z,71.48
2018-04-25T05:55:54.011Z,70.81
2018-04-25T05:56:54.131Z,70.05
2018-04-25T05:57:54.272Z,69.95
2018-04-25T05:58:54.406Z,69.86
2018-04-25T05:59:54.547Z,69.76
2018-04-25T06:00:54.682Z,70.05
2018-04-25T06:01:54.828Z,70.24
2018-04-25T06:02:54.968Z,70.62
2018-04-25T06:03:55.106Z,70.34
2018-04-25T06:04:55.243Z,70.62
2018-04-25T06:05:55.381Z,70.53
2018-04-25T06:06:55.523Z,70.62
2018-04-25T06:07:55.657Z,70.43
2018-04-25T06:08:55.791Z,69.86
2018-04-25T06:09:55.929Z,70.62
2018-04-25T06:10:56.064Z,70.62
2018-04-25T06:11:56.208Z,70.24
2018-04-25T06:12:56.347Z,70.34
2018-04-25T06:13:56.483Z,70.62
2018-04-25T06:14:56.625Z,70.81
2018-04-25T06:15:56.765Z,70.53
2018-04-25T06:16:56.905Z,71.01
2018-04-25T06:17:57.037Z,70.81
2018-04-25T06:18:57.190Z,70.91
2018-04-25T06:19:57.315Z,70.91
2018-04-25T06:20:57.459Z,71.58
2018-04-25T06:21:57.591Z,71.11
2018-04-25T06:22:57.726Z,70.62
2018-04-25T06:23:57.892Z,70.56
2018-04-25T06:24:58.033Z,70.56
2018-04-25T06:25:58.171Z,70.56
2018-04-25T06:26:58.343Z,70.95
2018-04-25T06:27:58.476Z,70.85
2018-04-25T06:28:58.615Z,70.47
2018-04-25T06:29:58.759Z,70.76
2018-04-25T06:30:58.891Z,70.66
2018-04-25T06:31:59.049Z,70.47
2018-04-25T06:32:59.181Z,70.85
2018-04-25T06:33:59.326Z,70.66
2018-04-25T06:34:59.467Z,70.66
2018-04-25T06:35:59.609Z,70.47
2018-04-25T06:36:59.746Z,70.47
2018-04-25T06:37:59.885Z,70.85
2018-04-25T06:39:00.020Z,70.76
2018-04-25T06:40:00.223Z,70.37
2018-04-25T06:41:00.350Z,70.09
2018-04-25T06:42:00.495Z,70.09
2018-04-25T06:43:00.642Z,70.56
2018-04-25T06:44:00.807Z,69.80
2018-04-25T06:45:00.953Z,69.99
2018-04-25T06:46:01.080Z,70.31
2018-04-25T06:47:01.215Z,70.03
2018-04-25T06:48:01.396Z,69.42
2018-04-25T06:49:01.516Z,70.31
2018-04-25T06:50:01.648Z,69.64
2018-04-25T06:51:02.271Z,70.21
2018-04-25T06:52:01.951Z,70.50
2018-04-25T06:53:02.093Z,70.31
2018-04-25T06:54:02.247Z,69.64
2018-04-25T06:55:02.401Z,70.31
2018-04-25T06:56:02.539Z,69.83
2018-04-25T06:57:02.693Z,70.70
2018-04-25T06:58:02.830Z,70.79
2018-04-25T06:59:02.969Z,71.08
2018-04-25T07:00:03.108Z,70.79
2018-04-25T07:01:03.265Z,70.98
2018-04-25T07:02:03.398Z,71.27
2018-04-25T07:03:03.533Z,71.08
2018-04-25T07:04:03.666Z,70.12
2018-04-25T07:05:03.814Z,69.45
2018-04-25T07:06:03.952Z,69.64
2018-04-25T07:07:04.096Z,70.60
2018-04-25T07:08:04.306Z,70.12
2018-04-25T07:09:04.381Z,69.93
2018-04-25T07:10:04.518Z,70.70
2018-04-25T07:11:04.657Z,69.74
2018-04-25T07:12:04.812Z,70.60
2018-04-25T07:13:04.950Z,70.98
2018-04-25T07:14:05.111Z,70.50
2018-04-25T07:15:05.231Z,70.60
2018-04-25T07:16:05.370Z,70.98
2018-04-25T07:17:05.514Z,70.79
2018-04-25T07:18:05.648Z,70.79
2018-04-25T07:19:05.793Z,70.60
2018-04-25T07:20:05.944Z,69.93
2018-04-25T07:21:06.082Z,70.12
2018-04-25T07:22:06.214Z,70.70
2018-04-25T07:23:06.353Z,71.08
2018-04-25T07:24:06.497Z,70.98
2018-04-25T07:25:06.650Z,70.70
2018-04-25T07:26:06.767Z,70.70
2018-04-25T07:27:06.908Z,69.93
2018-04-25T07:28:07.043Z,70.50
2018-04-25T07:29:07.188Z,70.31
2018-04-25T07:30:07.323Z,69.74
2018-04-25T07:31:07.466Z,70.03
2018-04-25T07:32:07.606Z,69.74
2018-04-25T07:33:07.744Z,70.50
2018-04-25T07:34:07.886Z,70.41
2018-04-25T07:35:08.036Z,70.12
2018-04-25T07:36:08.172Z,70.03
2018-04-25T07:37:08.306Z,70.21
2018-04-25T07:38:08.442Z,69.83
2018-04-25T07:39:08.593Z,69.83
2018-04-25T07:40:08.732Z,70.21
2018-04-25T07:41:08.868Z,70.12
2018-04-25T07:42:09.009Z,70.21
2018-04-25T07:43:09.146Z,69.74
2018-04-25T07:44:09.285Z,69.83
2018-04-25T07:45:09.420Z,69.83
2018-04-25T07:46:09.572Z,70.21
2018-04-25T07:47:09.707Z,69.83
2018-04-25T07:48:09.845Z,70.12
2018-04-25T07:49:09.985Z,70.21
2018-04-25T07:50:10.126Z,69.93
2018-04-25T07:51:10.261Z,70.21
2018-04-25T07:52:10.422Z,70.21
2018-04-25T07:53:10.570Z,70.21
2018-04-25T07:54:10.710Z,69.83
2018-04-25T07:55:10.845Z,69.35
2018-04-25T07:56:10.984Z,69.54
2018-04-25T07:57:11.196Z,69.35
2018-04-25T07:58:11.279Z,69.45
2018-04-25T07:59:11.418Z,69.35
2018-04-25T08:00:11.584Z,69.45
2018-04-25T08:01:11.711Z,69.93
2018-04-25T08:02:11.851Z,69.10
2018-04-25T08:03:11.985Z,69.64
2018-04-25T08:04:12.126Z,69.54
2018-04-25T08:05:12.252Z,69.35
2018-04-25T08:06:12.390Z,68.87
2018-04-25T08:07:12.532Z,69.64
2018-04-25T08:08:12.694Z,69.64
2018-04-25T08:09:12.827Z,69.07
2018-04-25T08:10:12.962Z,69.64
2018-04-25T08:11:13.100Z,69.74
2018-04-25T08:12:13.295Z,70.25
2018-04-25T08:13:13.396Z,69.68
2018-04-25T08:14:13.540Z,69.29
2018-04-25T08:15:13.678Z,69.20
2018-04-25T08:16:13.832Z,69.48
2018-04-25T08:17:13.968Z,69.10
2018-04-25T08:18:14.111Z,68.62
2018-04-25T08:19:14.263Z,68.52
2018-04-25T08:20:14.406Z,68.52
2018-04-25T08:21:14.545Z,69.20
2018-04-25T08:22:14.675Z,68.33
2018-04-25T08:23:14.813Z,68.52
2018-04-25T08:24:14.965Z,68.33
2018-04-25T08:25:15.106Z,68.66
2018-04-25T08:26:15.246Z,68.46
2018-04-25T08:27:15.403Z,68.66
2018-04-25T08:28:15.540Z,68.14
2018-04-25T08:29:15.675Z,68.08
2018-04-25T08:30:15.811Z,68.08
2018-04-25T08:31:15.974Z,67.50
2018-04-25T08:32:16.101Z,67.32
2018-04-25T08:33:16.238Z,68.75
2018-04-25T08:34:16.483Z,68.27
2018-04-25T08:35:16.542Z,67.60
2018-04-25T08:36:16.680Z,67.25
2018-04-25T08:37:16.819Z,67.32
2018-04-25T08:38:16.987Z,66.64
2018-04-25T08:39:17.183Z,66.19
2018-04-25T08:40:17.266Z,66.67
2018-04-25T08:41:17.409Z,66.00
2018-04-25T08:42:17.547Z,65.72
2018-04-25T08:43:17.716Z,64.95
2018-04-25T08:44:17.855Z,64.66
2018-04-25T08:45:18.020Z,64.56
2018-04-25T08:46:18.133Z,65.05
2018-04-25T08:47:18.278Z,65.52
2018-04-25T08:48:18.413Z,65.52
2018-04-25T08:49:18.545Z,65.43
2018-04-25T08:50:18.686Z,64.47
2018-04-25T08:51:18.832Z,62.93
2018-04-25T08:52:18.963Z,62.81
2018-04-25T08:53:19.106Z,62.90
2018-04-25T08:54:19.244Z,62.42
2018-04-25T08:55:19.394Z,63.19
2018-04-25T08:56:19.528Z,63.57
2018-04-25T08:57:19.667Z,65.11
2018-04-25T08:58:19.817Z,64.15
2018-04-25T08:59:20.043Z,64.15
2018-04-25T09:00:20.086Z,65.59
2018-04-25T09:01:20.227Z,66.06
2018-04-25T09:02:20.369Z,66.06
2018-04-25T09:03:20.510Z,66.64
2018-04-25T09:04:20.652Z,66.55
2018-04-25T09:05:20.790Z,66.26
2018-04-25T09:06:20.923Z,66.26
2018-04-25T09:07:21.060Z,66.16
2018-04-25T09:08:21.197Z,64.34
2018-04-25T09:09:21.333Z,63.29
2018-04-25T09:10:21.486Z,64.43
2018-04-25T09:11:21.617Z,63.09
2018-04-25T09:12:21.759Z,63.57
2018-04-25T09:13:21.894Z,64.53
2018-04-25T09:14:22.023Z,63.67
2018-04-25T09:15:22.167Z,63.38
2018-04-25T09:16:22.301Z,63.67
2018-04-25T09:17:22.455Z,63.48
2018-04-25T09:18:22.583Z,63.38
2018-04-25T09:19:22.718Z,63.96
2018-04-25T09:20:22.886Z,64.34
2018-04-25T09:21:22.988Z,63.19
2018-04-25T09:22:23.148Z,63.42
2018-04-25T09:23:23.302Z,63.51
2018-04-25T09:24:23.419Z,63.32
2018-04-25T09:25:23.561Z,62.65
2018-04-25T09:26:23.695Z,62.16
2018-04-25T09:27:23.837Z,62.07
2018-04-25T09:28:23.976Z,62.87
2018-04-25T09:29:24.114Z,61.72
2018-04-25T09:30:24.272Z,61.24
2018-04-25T09:31:24.463Z,60.53
2018-04-25T09:32:24.588Z,61.59
2018-04-25T09:33:24.730Z,62.16
2018-04-25T09:34:24.978Z,61.78
2018-04-25T09:35:25.036Z,61.66
2018-04-25T09:36:25.176Z,62.23
2018-04-25T09:37:25.313Z,62.81
2018-04-25T09:38:25.455Z,62.90
2018-04-25T09:39:25.599Z,63.00
2018-04-25T09:40:25.733Z,62.90
2018-04-25T09:41:25.887Z,63.67
2018-04-25T09:42:26.121Z,63.19
2018-04-25T09:43:26.131Z,63.48
2018-04-25T09:44:26.267Z,63.00
2018-04-25T09:45:26.392Z,63.57
2018-04-25T09:46:26.530Z,63.67
2018-04-25T09:47:26.676Z,62.33
2018-04-25T09:48:26.819Z,62.81
2018-04-25T09:49:26.954Z,63.38
2018-04-25T09:50:27.086Z,62.52
2018-04-25T09:51:27.222Z,63.29
2018-04-25T09:52:27.365Z,64.69
2018-04-25T09:53:27.501Z,63.96
2018-04-25T09:54:27.638Z,64.53
2018-04-25T09:55:27.770Z,63.92
2018-04-25T09:56:27.916Z,64.40
2018-04-25T09:57:28.107Z,65.01
2018-04-25T09:58:28.212Z,64.79
2018-04-25T09:59:28.335Z,64.63
2018-04-25T10:00:28.479Z,64.22
2018-04-25T10:01:28.615Z,65.08
2018-04-25T10:02:28.750Z,64.22
2018-04-25T10:03:28.887Z,64.34
2018-04-25T10:04:29.022Z,64.34
2018-04-25T10:05:29.177Z,63.76
2018-04-25T10:06:29.315Z,64.25
2018-04-25T10:07:29.450Z,64.92
2018-04-25T10:08:29.584Z,64.72
2018-04-25T10:09:29.727Z,65.33
2018-04-25T10:10:29.866Z,64.76
2018-04-25T10:11:30.009Z,65.05
2018-04-25T10:12:30.146Z,63.57
2018-04-25T10:13:30.290Z,64.18
2018-04-25T10:14:30.481Z,63.99
2018-04-25T10:15:30.630Z,64.28
2018-04-25T10:16:30.766Z,63.32
2018-04-25T10:17:30.908Z,63.60
2018-04-25T10:18:31.065Z,62.65
2018-04-25T10:19:31.190Z,62.93
2018-04-25T10:20:31.330Z,62.36
2018-04-25T10:21:31.477Z,62.93
2018-04-25T10:22:31.613Z,64.09
2018-04-25T10:23:31.764Z,63.92
2018-04-25T10:24:31.894Z,62.39
2018-04-25T10:25:32.087Z,62.01
2018-04-25T10:26:32.867Z,62.87
2018-04-25T10:27:32.297Z,62.52
2018-04-25T10:28:32.430Z,62.32
2018-04-25T10:29:32.558Z,62.04
2018-04-25T10:30:32.696Z,61.94
2018-04-25T10:31:32.840Z,61.27
2018-04-25T10:32:32.992Z,61.36
2018-04-25T10:33:33.127Z,60.88
2018-04-25T10:34:33.652Z,60.98
2018-04-25T10:35:33.357Z,61.65
2018-04-25T10:36:33.517Z,61.46
2018-04-25T10:37:33.659Z,58.67
2018-04-25T10:38:33.794Z,59.16
2018-04-25T10:39:33.941Z,59.19
2018-04-25T10:40:34.152Z,58.48
2018-04-25T10:41:34.269Z,59.38
2018-04-25T10:42:34.408Z,58.99
2018-04-25T10:43:34.560Z,60.56
2018-04-25T10:44:34.702Z,60.85
2018-04-25T10:45:34.845Z,59.79
2018-04-25T10:46:34.990Z,58.92
2018-04-25T10:47:35.128Z,58.54
2018-04-25T10:48:35.280Z,57.75
2018-04-25T10:49:35.418Z,58.42
2018-04-25T10:50:35.552Z,58.61
2018-04-25T10:51:35.698Z,58.61
2018-04-25T10:52:35.845Z,58.42
2018-04-25T10:53:35.984Z,58.03
2018-04-25T10:54:36.194Z,57.65
2018-04-25T10:55:36.287Z,57.84
2018-04-25T10:56:36.427Z,58.00
2018-04-25T10:57:36.567Z,58.48
2018-04-25T10:58:36.725Z,58.96
2018-04-25T10:59:36.873Z,58.58
2018-04-25T11:00:37.001Z,58.87
2018-04-25T11:01:37.144Z,58.55
2018-04-25T11:02:37.292Z,59.03
2018-04-25T11:03:37.431Z,59.99
2018-04-25T11:04:37.576Z,59.89
2018-04-25T11:05:37.713Z,60.18
2018-04-25T11:06:37.849Z,60.47
2018-04-25T11:07:37.984Z,60.40
2018-04-25T11:08:38.129Z,60.85
2018-04-25T11:09:38.246Z,62.58
2018-04-25T11:10:38.408Z,64.22
2018-04-25T11:11:38.543Z,66.71
2018-04-25T11:12:38.749Z,68.73
2018-04-25T11:13:38.836Z,69.40
2018-04-25T11:14:38.977Z,70.07
2018-04-25T11:15:39.117Z,70.61
2018-04-25T11:16:39.256Z,70.61
2018-04-25T11:17:39.398Z,70.70
2018-04-25T11:18:39.540Z,71.66
2018-04-25T11:19:39.685Z,72.11
2018-04-25T11:20:39.825Z,72.88
2018-04-25T11:21:39.994Z,74.60
2018-04-25T11:22:40.138Z,74.27
2018-04-25T11:23:40.283Z,75.33
2018-04-25T11:24:40.418Z,74.79
2018-04-25T11:25:40.589Z,73.72
2018-04-25T11:26:40.785Z,71.83
2018-04-25T11:27:40.873Z,70.84
2018-04-25T11:28:41.011Z,71.25
2018-04-25T11:29:41.195Z,72.75
2018-04-25T11:30:41.328Z,73.52
2018-04-25T11:31:41.472Z,72.43
2018-04-25T11:32:41.627Z,72.91
2018-04-25T11:33:41.770Z,73.58
2018-04-25T11:34:41.907Z,73.07
2018-04-25T11:35:42.049Z,72.74
2018-04-25T11:36:42.194Z,73.26
2018-04-25T11:37:42.332Z,75.04
2018-04-25T11:38:42.496Z,76.29
2018-04-25T11:39:42.635Z,77.15
2018-04-25T11:40:42.806Z,77.63
2018-04-25T11:41:42.942Z,77.92
2018-04-25T11:42:43.087Z,77.63
2018-04-25T11:43:43.228Z,77.25
2018-04-25T11:44:43.364Z,78.11
2018-04-25T11:45:43.505Z,78.49
2018-04-25T11:46:43.691Z,79.36
2018-04-25T11:47:43.798Z,77.29
2018-04-25T11:48:43.939Z,77.19
2018-04-25T11:49:44.130Z,76.52
2018-04-25T11:50:44.265Z,76.32
2018-04-25T11:51:44.412Z,76.04
2018-04-25T11:52:44.566Z,76.23
2018-04-25T11:53:44.723Z,75.43
2018-04-25T11:54:44.855Z,75.81
2018-04-25T11:55:44.995Z,76.06
2018-04-25T11:56:45.132Z,75.90
2018-04-25T11:57:45.273Z,76.57
2018-04-25T11:58:45.407Z,77.50
2018-04-25T11:59:45.610Z,78.55
2018-04-25T12:00:45.691Z,78.74
2018-04-25T12:01:46.401Z,77.50
2018-04-25T12:02:45.961Z,78.17
2018-04-25T12:03:46.087Z,78.45
2018-04-25T12:04:46.229Z,77.40
2018-04-25T12:05:46.365Z,77.69
2018-04-25T12:06:46.503Z,77.59
2018-04-25T12:07:46.652Z,77.53
2018-04-25T12:08:46.792Z,77.34
2018-04-25T12:09:46.941Z,79.16
2018-04-25T12:10:47.077Z,78.15
2018-04-25T12:11:47.223Z,79.11
2018-04-25T12:12:47.362Z,76.71
2018-04-25T12:13:47.504Z,75.98
2018-04-25T12:14:47.654Z,75.40
2018-04-25T12:15:47.793Z,75.12
2018-04-25T12:16:47.929Z,74.29
2018-04-25T12:17:48.073Z,74.77
2018-04-25T12:18:48.269Z,71.64
2018-04-25T12:19:48.344Z,70.01
2018-04-25T12:20:48.482Z,69.85
2018-04-25T12:21:48.631Z,71.81
2018-04-25T12:22:48.791Z,70.04
2018-04-25T12:23:48.905Z,69.85
2018-04-25T12:24:49.044Z,68.60
2018-04-25T12:25:49.187Z,68.57
2018-04-25T12:26:49.326Z,69.62
2018-04-25T12:27:49.467Z,69.68
2018-04-25T12:28:49.614Z,69.78
2018-04-25T12:29:49.755Z,69.78
2018-04-25T12:30:49.907Z,71.66
2018-04-25T12:31:50.047Z,72.59
2018-04-25T12:32:50.188Z,72.49
2018-04-25T12:33:50.358Z,72.78
2018-04-25T12:34:50.488Z,72.17
2018-04-25T12:35:50.693Z,72.78
2018-04-25T12:36:50.785Z,73.61
2018-04-25T12:37:50.928Z,74.66
2018-04-25T12:38:51.054Z,74.57
2018-04-25T12:39:51.203Z,75.39
2018-04-25T12:40:51.384Z,76.15
2018-04-25T12:41:51.497Z,76.48
2018-04-25T12:42:51.631Z,76.73
2018-04-25T12:43:51.769Z,77.21
2018-04-25T12:44:51.919Z,77.63
2018-04-25T12:45:52.079Z,77.11
2018-04-25T12:46:52.217Z,76.35
2018-04-25T12:47:52.897Z,75.87
2018-04-25T12:48:52.650Z,75.96
2018-04-25T12:49:52.541Z,77.02
2018-04-25T12:50:52.662Z,76.77
2018-04-25T12:51:52.797Z,76.35
2018-04-25T12:52:52.958Z,77.31
2018-04-25T12:53:53.097Z,75.52